Time;durP1;ratioP1;P1;durP2;ratioP2;P2;SDS_P1;SDS_P2;PMS_P1;PMS_P2;Temp;Humidity;BMP_temperature;BMP_pressure;BME280_temperature;BME280_humidity;BME280_pressure;Samples;Min_cycle;Max_cycle;Signal;HPM_P1;HPM_P2
2022/08/18 00:01:15;;;;;;;13.93;8.68;;;;;;;19.63;100.00;100870.38;6250961;28;20045;-79
2022/08/18 00:04:17;;;;;;;12.10;6.75;;;;;;;19.63;100.00;100866.88;6250951;28;20049;-78
2022/08/18 00:07:20;;;;;;;16.17;8.07;;;;;;;19.62;100.00;100867.84;6250427;28;20045;-79
2022/08/18 00:10:22;;;;;;;14.57;8.57;;;;;;;19.61;100.00;100869.66;6251148;28;20063;-79
2022/08/18 00:13:24;;;;;;;12.00;7.22;;;;;;;19.59;100.00;100871.59;6250818;28;20129;-79
2022/08/18 00:16:26;;;;;;;12.15;7.93;;;;;;;19.54;100.00;100873.84;6251101;28;20041;-79
2022/08/18 00:19:27;;;;;;;16.13;7.45;;;;;;;19.50;100.00;100872.44;6250609;28;20049;-79
2022/08/18 00:22:29;;;;;;;12.98;7.45;;;;;;;19.47;100.00;100867.34;6250981;28;20045;-79
2022/08/18 00:25:30;;;;;;;14.10;7.95;;;;;;;19.44;100.00;100867.63;6249953;28;20053;-79
2022/08/18 00:28:33;;;;;;;13.23;7.22;;;;;;;19.40;100.00;100869.75;6250084;28;20068;-79
2022/08/18 00:31:34;;;;;;;11.52;7.70;;;;;;;19.38;100.00;100866.34;6250257;28;20433;-79
2022/08/18 00:34:36;;;;;;;15.25;8.98;;;;;;;19.38;100.00;100868.19;6250156;28;20416;-78
2022/08/18 00:37:37;;;;;;;15.80;8.57;;;;;;;19.35;100.00;100855.97;6250344;28;20070;-79
2022/08/18 00:40:42;;;;;;;16.25;8.50;;;;;;;19.37;100.00;100863.84;6249899;28;20049;-78
2022/08/18 00:43:50;;;;;;;15.70;8.73;;;;;;;19.36;100.00;100857.66;6250300;28;20054;-79
2022/08/18 00:46:51;;;;;;;16.15;9.02;;;;;;;19.36;100.00;100860.31;6248889;28;20053;-79
2022/08/18 00:49:53;;;;;;;13.77;8.93;;;;;;;19.32;100.00;100860.75;6250000;28;20061;-79
2022/08/18 00:53:00;;;;;;;16.77;9.75;;;;;;;19.31;100.00;100875.88;6249998;28;20421;-80
2022/08/18 00:56:07;;;;;;;15.68;9.95;;;;;;;19.26;100.00;100870.97;6249677;28;20477;-79
2022/08/18 00:59:15;;;;;;;16.38;9.18;;;;;;;19.23;100.00;100863.22;6249920;28;20104;-78
2022/08/18 01:02:22;;;;;;;16.60;10.52;;;;;;;19.22;100.00;100879.34;6250217;28;20046;-78
2022/08/18 01:05:32;;;;;;;17.95;10.40;;;;;;;19.21;100.00;100882.97;6249437;28;20053;-79
2022/08/18 01:08:34;;;;;;;13.82;8.88;;;;;;;19.21;100.00;100874.97;6249990;28;20504;-79
2022/08/18 01:11:37;;;;;;;18.90;10.95;;;;;;;19.18;100.00;100869.94;6249325;28;20049;-79
2022/08/18 01:14:39;;;;;;;17.80;11.05;;;;;;;19.14;100.00;100888.00;6249647;28;20053;-78
2022/08/18 01:27:53;;;;;;;19.67;10.68;;;;;;;19.09;100.00;100882.25;6249035;28;20083;-78
2022/08/18 01:30:57;;;;;;;17.63;11.15;;;;;;;19.07;100.00;100886.84;6248883;28;20057;-79
2022/08/18 01:33:58;;;;;;;19.10;9.70;;;;;;;19.09;100.00;100884.91;6249031;28;20053;-79
2022/08/18 01:36:59;;;;;;;14.80;9.52;;;;;;;19.09;100.00;100884.91;6249335;28;20053;-77
2022/08/18 01:40:05;;;;;;;18.73;11.10;;;;;;;19.05;100.00;100888.81;6249684;28;20049;-79
2022/08/18 01:43:06;;;;;;;17.08;9.95;;;;;;;18.98;100.00;100883.16;6249230;28;20052;-78
2022/08/18 01:46:08;;;;;;;17.10;10.48;;;;;;;18.94;100.00;100878.22;6248736;28;20056;-79
2022/08/18 01:49:12;;;;;;;17.13;10.13;;;;;;;18.92;100.00;100878.38;6249552;28;20060;-79
2022/08/18 01:52:18;;;;;;;15.80;10.43;;;;;;;18.89;100.00;100869.78;6249345;28;20049;-79
2022/08/18 01:55:20;;;;;;;15.65;9.27;;;;;;;18.92;100.00;100874.88;6248737;28;20053;-79
2022/08/18 01:58:26;;;;;;;18.00;10.52;;;;;;;18.90;100.00;100885.66;6248279;28;20056;-79
2022/08/18 02:01:28;;;;;;;17.85;10.70;;;;;;;18.94;100.00;100886.22;6248820;28;20049;-78
2022/08/18 02:04:33;;;;;;;15.32;9.70;;;;;;;18.87;100.00;100885.06;6249132;28;20045;-79
2022/08/18 02:07:36;;;;;;;16.35;9.45;;;;;;;18.87;100.00;100883.25;6248475;28;20404;-79
2022/08/18 02:10:40;;;;;;;17.83;10.43;;;;;;;18.89;100.00;100883.09;6248954;28;20049;-78
2022/08/18 02:13:42;;;;;;;17.98;10.85;;;;;;;18.75;100.00;100884.28;6248765;28;20049;-79
2022/08/18 02:16:43;;;;;;;16.95;10.32;;;;;;;18.59;100.00;100881.25;6248650;28;20042;-79
2022/08/18 02:19:46;;;;;;;19.38;11.38;;;;;;;18.61;100.00;100879.28;6248978;28;20049;-78
2022/08/18 02:22:49;;;;;;;19.48;10.88;;;;;;;18.61;100.00;100890.75;6248655;28;20501;-79
2022/08/18 02:25:52;;;;;;;18.63;11.45;;;;;;;18.54;100.00;100892.28;6248677;28;20165;-78
2022/08/18 02:28:53;;;;;;;18.15;10.85;;;;;;;18.59;100.00;100897.22;6248729;28;20489;-79
2022/08/18 02:31:55;;;;;;;24.00;13.25;;;;;;;18.60;100.00;100906.88;6246540;28;20056;-78
2022/08/18 02:34:56;;;;;;;24.40;13.35;;;;;;;18.48;100.00;100909.56;6248912;28;20053;-79
2022/08/18 02:37:58;;;;;;;23.13;13.00;;;;;;;18.38;100.00;100914.00;6248428;28;20045;-78
2022/08/18 02:41:05;;;;;;;25.88;13.43;;;;;;;18.41;100.00;100913.75;6248051;28;20049;-78
2022/08/18 02:44:07;;;;;;;25.60;14.65;;;;;;;18.38;100.00;100916.66;6249366;28;20076;-80
2022/08/18 02:47:09;;;;;;;25.75;14.82;;;;;;;18.29;100.00;100913.91;6248232;28;20052;-80
2022/08/18 02:50:10;;;;;;;26.38;13.65;;;;;;;18.10;100.00;100910.13;6248342;28;20056;-77
2022/08/18 02:53:14;;;;;;;28.70;13.82;;;;;;;18.13;100.00;100907.22;6248322;28;20489;-79
2022/08/18 02:56:23;;;;;;;29.05;13.73;;;;;;;18.19;100.00;100896.06;6247587;28;20049;-79
2022/08/18 02:59:27;;;;;;;27.50;15.15;;;;;;;18.25;100.00;100903.53;6247812;28;20049;-79
2022/08/18 03:02:28;;;;;;;30.48;14.15;;;;;;;18.27;100.00;100903.41;6247550;28;20499;-79
2022/08/18 03:05:29;;;;;;;26.23;13.45;;;;;;;18.33;100.00;100902.91;6247460;28;20049;-80
2022/08/18 03:08:32;;;;;;;32.60;15.23;;;;;;;18.31;100.00;100898.69;6247569;28;20049;-80
2022/08/18 03:11:35;;;;;;;30.50;14.48;;;;;;;18.23;100.00;100897.50;6251516;28;20047;-80
2022/08/18 03:14:38;;;;;;;31.67;14.60;;;;;;;18.14;100.00;100890.28;6251755;28;20042;-79
2022/08/18 03:17:40;;;;;;;38.03;16.10;;;;;;;18.12;100.00;100891.38;6252047;28;20046;-82
2022/08/18 03:20:43;;;;;;;30.67;15.15;;;;;;;18.19;100.00;100896.06;6251872;28;20052;-79
2022/08/18 03:23:44;;;;;;;31.90;14.68;;;;;;;18.20;100.00;100894.25;6252354;28;20068;-78
2022/08/18 03:26:47;;;;;;;35.08;16.42;;;;;;;18.28;100.00;100893.63;6251767;28;20045;-78
2022/08/18 03:29:48;;;;;;;36.33;16.83;;;;;;;18.28;100.00;100885.63;6251589;28;20053;-80
2022/08/18 03:32:51;;;;;;;32.20;15.95;;;;;;;18.22;100.00;100882.50;6251860;28;20516;-80
2022/08/18 03:35:52;;;;;;;32.70;16.23;;;;;;;18.22;100.00;100876.34;6251993;28;20053;-79
2022/08/18 03:38:54;;;;;;;31.75;16.08;;;;;;;18.19;100.00;100881.91;6252413;28;20073;-78
2022/08/18 03:41:57;;;;;;;36.05;16.95;;;;;;;18.10;100.00;100891.50;6244738;28;20056;-79
2022/08/18 03:44:59;;;;;;;35.60;17.08;;;;;;;18.20;100.00;100894.25;6239848;28;20052;-78
2022/08/18 03:48:02;;;;;;;41.28;18.38;;;;;;;18.31;100.00;100888.03;6231911;28;20481;-78
2022/08/18 03:51:05;;;;;;;34.83;17.17;;;;;;;18.22;100.00;100889.66;6229881;28;20271;-81
2022/08/18 03:54:06;;;;;;;36.53;17.58;;;;;;;18.18;100.00;100874.91;6226798;28;20054;-79
2022/08/18 03:57:11;;;;;;;43.55;18.52;;;;;;;18.15;100.00;100876.00;6227058;28;20053;-78
2022/08/18 04:00:13;;;;;;;37.63;17.25;;;;;;;18.25;100.00;100886.72;6226143;28;20054;-77
2022/08/18 04:03:15;;;;;;;33.83;16.60;;;;;;;18.28;100.00;100880.31;6226746;28;20061;-81
2022/08/18 04:06:17;;;;;;;30.52;15.95;;;;;;;18.31;100.00;100880.91;6226481;28;20057;-81
2022/08/18 04:09:19;;;;;;;33.25;16.27;;;;;;;18.33;100.00;100884.28;6230089;28;20053;-79
2022/08/18 04:12:22;;;;;;;33.42;15.88;;;;;;;18.31;100.00;100880.91;6238927;28;20048;-79
2022/08/18 04:15:23;;;;;;;29.10;15.48;;;;;;;18.33;100.00;100884.28;6240178;28;20416;-81
2022/08/18 04:18:25;;;;;;;35.33;15.63;;;;;;;18.28;100.00;100882.97;6251108;28;20046;-79
2022/08/18 04:21:26;;;;;;;25.77;13.50;;;;;;;18.35;100.00;100892.09;6251149;28;20056;-78
2022/08/18 04:24:29;;;;;;;27.17;14.30;;;;;;;18.31;100.00;100894.22;6248146;28;20056;-79
2022/08/18 04:27:32;;;;;;;33.40;14.23;;;;;;;18.38;100.00;100897.19;6234692;28;20038;-80
2022/08/18 04:30:33;;;;;;;31.13;15.18;;;;;;;18.37;100.00;100893.69;6241108;28;20045;-78
2022/08/18 04:33:35;;;;;;;28.10;14.75;;;;;;;18.35;100.00;100900.97;6250235;28;20053;-78
2022/08/18 04:36:37;;;;;;;26.60;13.80;;;;;;;18.39;100.00;100905.03;6250024;28;20436;-80
2022/08/18 04:39:38;;;;;;;26.92;13.25;;;;;;;18.27;100.00;100910.56;6250055;28;20071;-80
2022/08/18 04:42:41;;;;;;;25.65;12.98;;;;;;;18.22;100.00;100911.78;6250382;28;20053;-79
2022/08/18 04:45:44;;;;;;;26.98;12.55;;;;;;;18.31;100.00;100917.31;6250227;28;20057;-79
2022/08/18 04:48:45;;;;;;;25.17;12.73;;;;;;;18.33;100.00;100916.19;6249655;28;20490;-80
2022/08/18 04:55:06;;;;;;;24.25;12.65;;;;;;;18.28;100.00;100917.56;6237479;28;20046;-79
2022/08/18 04:58:09;;;;;;;24.85;12.88;;;;;;;18.36;100.00;100923.09;6244673;28;20409;-79
2022/08/18 05:01:10;;;;;;;25.27;12.15;;;;;;;18.41;100.00;100927.06;6241330;28;20064;-78
2022/08/18 05:04:13;;;;;;;22.38;13.05;;;;;;;18.44;100.00;100928.59;6249862;28;20060;-80
2022/08/18 05:07:19;;;;;;;26.77;13.60;;;;;;;18.47;100.00;100947.81;6245099;28;20119;-79
2022/08/18 05:10:20;;;;;;;24.25;11.88;;;;;;;18.41;100.00;100939.50;6241594;28;20659;-80
2022/08/18 05:13:25;;;;;;;26.40;12.70;;;;;;;18.41;100.00;100940.34;6249523;28;20053;-78
2022/08/18 05:16:27;;;;;;;17.88;9.77;;;;;;;18.47;100.00;100945.16;6249187;28;20053;-79
2022/08/18 05:19:30;;;;;;;28.17;11.77;;;;;;;18.48;100.00;100946.84;6249060;28;20417;-79
2022/08/18 05:22:36;;;;;;;26.00;12.60;;;;;;;18.55;100.00;100946.34;6244338;28;20049;-80
2022/08/18 05:25:38;;;;;;;26.10;12.98;;;;;;;18.54;100.00;100948.16;6224938;28;20054;-79
2022/08/18 05:28:42;;;;;;;23.52;12.27;;;;;;;18.58;100.00;100954.94;6224967;28;20136;-77
2022/08/18 05:31:44;;;;;;;27.13;13.73;;;;;;;18.58;100.00;100954.09;6224376;28;20046;-79
2022/08/18 05:34:47;;;;;;;20.80;10.98;;;;;;;18.62;100.00;100955.50;6223429;28;20513;-80
2022/08/18 05:38:03;;;;;;;30.30;13.63;;;;;;;18.62;100.00;100959.03;6224180;28;20052;-79
2022/08/18 05:41:09;;;;;;;26.40;12.40;;;;;;;18.63;100.00;100958.03;6224412;28;20057;-78
2022/08/18 05:44:14;;;;;;;25.88;13.40;;;;;;;18.64;100.00;100964.22;6224582;28;20045;-78
2022/08/18 05:47:19;;;;;;;26.08;12.60;;;;;;;18.61;100.00;100967.13;6224232;28;20559;-79
2022/08/18 05:50:21;;;;;;;21.58;9.68;;;;;;;18.64;100.00;100962.38;6223576;28;20057;-80
2022/08/18 05:56:45;;;;;;;23.50;11.98;;;;;;;18.68;100.00;100961.16;6224452;28;20061;-80
2022/08/18 05:56:45;;;;;;;22.23;11.43;;;;;;;18.69;100.00;100962.88;6223378;28;20497;-80
2022/08/18 05:59:52;;;;;;;22.20;11.25;;;;;;;18.73;100.00;100958.16;6223959;28;20417;-78
2022/08/18 06:02:58;;;;;;;24.63;12.80;;;;;;;18.65;100.00;100965.91;6224211;28;20536;-79
2022/08/18 06:06:02;;;;;;;26.42;12.77;;;;;;;18.67;100.00;100964.81;6223769;28;20050;-81
2022/08/18 06:09:12;;;;;;;27.13;13.75;;;;;;;18.68;100.00;100969.16;6224200;28;20042;-80
2022/08/18 06:12:22;;;;;;;26.42;12.05;;;;;;;18.49;100.00;100974.31;6224249;28;20057;-81
2022/08/18 06:15:31;;;;;;;25.58;12.25;;;;;;;18.34;100.00;100973.75;6223567;28;20054;-80
2022/08/18 06:18:45;;;;;;;27.92;13.30;;;;;;;18.32;100.00;100982.84;6223889;28;20069;-80
2022/08/18 06:21:55;;;;;;;28.08;12.18;;;;;;;18.27;100.00;100985.06;6223554;28;20057;-80
2022/08/18 06:25:06;;;;;;;29.15;14.25;;;;;;;18.26;100.00;100973.56;6223726;28;20399;-79
2022/08/18 06:28:12;;;;;;;30.05;13.75;;;;;;;18.26;100.00;100984.22;6223815;28;20050;-78
2022/08/18 06:31:21;;;;;;;31.70;13.27;;;;;;;18.19;100.00;100978.53;6223392;28;20050;-79
2022/08/18 06:34:33;;;;;;;30.85;13.80;;;;;;;18.21;100.00;100992.56;6223451;28;20433;-78
2022/08/18 06:41:04;;;;;;;27.95;12.55;;;;;;;18.10;100.00;100989.91;6222895;28;20155;-79
2022/08/18 06:44:07;;;;;;;25.10;12.80;;;;;;;18.09;100.00;100995.38;6224444;28;20057;-79
2022/08/18 06:47:17;;;;;;;32.72;13.93;;;;;;;18.16;100.00;100993.88;6227809;28;20045;-79
2022/08/18 06:50:24;;;;;;;30.65;13.98;;;;;;;18.18;100.00;100999.94;6228095;28;20398;-80
2022/08/18 06:53:50;;;;;;;32.03;13.43;;;;;;;18.21;100.00;101003.22;6227994;28;20056;-78
2022/08/18 06:56:54;;;;;;;27.13;13.13;;;;;;;18.23;100.00;101009.22;6227759;28;20050;-79
2022/08/18 06:59:58;;;;;;;25.60;11.65;;;;;;;18.34;100.00;101010.16;6228431;28;20050;-77
2022/08/18 07:03:10;;;;;;;29.42;13.45;;;;;;;18.43;100.00;101018.25;6228022;28;20050;-78
2022/08/18 07:06:28;;;;;;;35.17;11.95;;;;;;;18.54;100.00;101025.34;6227736;28;20405;-79
2022/08/18 07:09:34;;;;;;;30.25;11.68;;;;;;;18.52;100.00;101019.31;6228426;28;20057;-79
2022/08/18 07:12:35;;;;;;;32.08;14.00;;;;;;;18.53;100.00;101021.00;6228099;28;20045;-78
2022/08/18 07:15:36;;;;;;;25.70;11.45;;;;;;;18.64;100.00;101025.44;6235443;28;20059;-77
2022/08/18 07:18:39;;;;;;;26.48;13.00;;;;;;;18.65;100.00;101022.63;6245286;28;20131;-78
2022/08/18 07:21:41;;;;;;;25.25;11.52;;;;;;;18.59;100.00;101031.16;6235004;28;20072;-78
2022/08/18 07:24:45;;;;;;;22.58;11.23;;;;;;;18.63;100.00;101026.41;6231931;28;20053;-78
2022/08/18 07:27:51;;;;;;;25.15;11.85;;;;;;;18.63;100.00;101029.94;6253607;28;20045;-80
2022/08/18 07:30:53;;;;;;;25.83;11.90;;;;;;;18.60;100.00;101030.16;6255537;28;20045;-79
2022/08/18 07:34:00;;;;;;;24.83;11.77;;;;;;;18.65;100.00;101025.31;6246414;28;20057;-79
2022/08/18 07:37:06;;;;;;;18.15;9.80;;;;;;;18.74;100.00;101031.72;6228757;28;20050;-79
2022/08/18 07:40:21;;;;;;;23.52;11.85;;;;;;;18.67;100.00;101028.69;6228566;28;20157;-79
2022/08/18 07:43:36;;;;;;;29.73;11.38;;;;;;;18.68;100.00;101024.22;6227911;28;20057;-78
2022/08/18 07:46:44;;;;;;;21.52;11.02;;;;;;;18.75;100.00;101028.91;6227317;28;20076;-78
2022/08/18 07:49:47;;;;;;;21.77;10.77;;;;;;;18.66;100.00;101021.66;6228319;28;20104;-79
2022/08/18 07:52:57;;;;;;;21.10;10.68;;;;;;;18.82;100.00;101025.75;6226649;28;20092;-76
2022/08/18 07:56:04;;;;;;;23.83;10.18;;;;;;;18.91;100.00;101032.97;6225336;28;20052;-78
2022/08/18 07:59:16;;;;;;;17.13;8.88;;;;;;;19.00;100.00;101033.03;6231447;28;20038;-78
2022/08/18 08:02:28;;;;;;;23.02;10.85;;;;;;;19.07;100.00;101041.34;6237038;28;20102;-78
2022/08/18 08:05:41;;;;;;;16.27;9.23;;;;;;;19.12;100.00;101032.97;6236998;28;20136;-78
2022/08/18 08:08:46;;;;;;;19.52;10.07;;;;;;;19.10;100.00;101041.09;6227486;28;20521;-79
2022/08/18 08:11:56;;;;;;;18.58;9.52;;;;;;;19.25;100.00;101042.44;6226891;28;20057;-78
2022/08/18 08:15:05;;;;;;;17.90;9.52;;;;;;;19.28;100.00;101036.03;6226144;28;20049;-78
2022/08/18 08:18:11;;;;;;;;;;;;;;;19.32;100.00;101042.78;6228366;28;20482;-77
2022/08/18 08:21:19;;;;;;;14.73;8.27;;;;;;;19.35;100.00;101039.88;6225419;28;19921;-77
2022/08/18 08:24:28;;;;;;;19.00;9.43;;;;;;;19.39;100.00;101041.28;6224897;28;20050;-78
2022/08/18 08:27:41;;;;;;;19.42;8.60;;;;;;;19.46;100.00;101036.28;6225128;28;20050;-77
2022/08/18 08:30:53;;;;;;;14.02;7.63;;;;;;;19.57;100.00;101046.84;6225332;28;20453;-78
2022/08/18 08:34:02;;;;;;;18.80;9.90;;;;;;;19.66;100.00;101039.91;6224898;28;20073;-76
2022/08/18 08:37:08;;;;;;;13.73;8.23;;;;;;;19.69;100.00;101043.16;6226128;28;20489;-77
2022/08/18 08:40:17;;;;;;;15.32;9.07;;;;;;;19.75;100.00;101047.09;6225798;28;20046;-78
2022/08/18 08:43:24;;;;;;;9.57;6.20;;;;;;;19.76;100.00;101052.31;6226317;28;20180;-78
2022/08/18 08:46:29;;;;;;;10.55;6.03;;;;;;;19.84;100.00;101050.78;6226069;28;20054;-76
2022/08/18 08:49:37;;;;;;;14.05;8.77;;;;;;;19.82;100.00;101044.75;6226305;28;20058;-78
2022/08/18 08:52:44;;;;;;;13.55;7.47;;;;;;;19.89;100.00;101045.91;6226568;28;20168;-77
2022/08/18 08:55:48;;;;;;;13.23;7.00;;;;;;;19.91;100.00;101047.47;6225044;28;20049;-78
2022/08/18 08:58:55;;;;;;;11.77;6.68;;;;;;;19.91;100.00;101044.78;6224731;28;20188;-78
2022/08/18 09:02:09;;;;;;;15.20;7.80;;;;;;;19.91;100.00;101042.13;6230521;28;20195;-78
2022/08/18 09:05:15;;;;;;;16.02;7.10;;;;;;;19.94;100.00;101044.53;6236879;28;20056;-78
2022/08/18 09:08:39;;;;;;;11.77;6.43;;;;;;;20.07;100.00;101041.59;6240106;28;20046;-77
2022/08/18 09:12:08;;;;;;;12.00;7.15;;;;;;;20.13;100.00;101025.06;6250769;28;20060;-78
2022/08/18 09:15:23;;;;;;;12.32;6.35;;;;;;;20.17;100.00;101026.47;6249571;28;20049;-81
2022/08/18 09:18:35;;;;;;;12.25;7.50;;;;;;;20.28;100.00;101026.34;6250171;28;20069;-79
2022/08/18 09:21:43;;;;;;;14.05;7.95;;;;;;;20.37;100.00;101026.50;6249503;28;20056;-78
2022/08/18 09:24:49;;;;;;;14.63;7.50;;;;;;;20.31;100.00;101024.41;6245457;28;20452;-80
2022/08/18 09:28:10;;;;;;;10.93;6.70;;;;;;;20.26;100.00;101030.16;6225733;28;20257;-79
2022/08/18 09:31:18;;;;;;;13.20;7.15;;;;;;;20.24;100.00;101040.13;6225514;28;20064;-77
2022/08/18 09:34:33;;;;;;;11.93;7.43;;;;;;;20.18;100.00;101049.50;6234005;28;20050;-78
2022/08/18 09:37:45;;;;;;;11.73;6.72;;;;;;;20.22;100.00;101040.25;6248781;28;20077;-78
2022/08/18 09:44:13;;;;;;;10.50;6.45;;;;;;;20.32;100.00;101045.63;6249519;28;20057;-79
2022/08/18 09:47:57;;;;;;;10.35;5.70;;;;;;;20.33;100.00;101049.13;6249373;28;20057;-79
2022/08/18 09:51:23;;;;;;;11.88;7.47;;;;;;;20.29;100.00;101059.22;6250295;28;20056;-80
2022/08/18 09:54:27;;;;;;;10.02;6.22;;;;;;;20.31;100.00;101062.63;6248976;28;20060;-79
2022/08/18 09:57:31;;;;;;;10.73;6.53;;;;;;;20.34;100.00;101059.66;6250156;28;20430;-80
2022/08/18 10:00:33;;;;;;;10.38;6.80;;;;;;;20.38;100.00;101053.06;6246080;28;20038;-78
2022/08/18 10:03:34;;;;;;;14.23;7.43;;;;;;;20.48;100.00;101053.97;6222929;28;20053;-78
2022/08/18 10:06:37;;;;;;;10.07;6.03;;;;;;;20.46;100.00;101058.56;6222761;28;20422;-78
2022/08/18 10:09:50;;;;;;;5.85;4.28;;;;;;;20.50;100.00;101065.34;6223465;28;20045;-79
2022/08/18 10:13:03;;;;;;;7.80;5.20;;;;;;;20.54;100.00;101070.41;6223350;28;20057;-78
2022/08/18 10:16:15;;;;;;;9.45;6.70;;;;;;;20.58;100.00;101070.00;6223177;28;20462;-79
2022/08/18 10:19:24;;;;;;;13.48;7.75;;;;;;;20.49;100.00;101069.00;6226849;28;20042;-81
2022/08/18 10:22:38;;;;;;;10.48;7.13;;;;;;;20.55;100.00;101062.25;6224457;28;20046;-79
2022/08/18 10:25:45;;;;;;;12.13;6.75;;;;;;;20.64;100.00;101065.94;6237554;28;20049;-79
2022/08/18 10:28:57;;;;;;;14.82;7.65;;;;;;;20.67;100.00;101061.16;6248065;28;20057;-79
2022/08/18 10:32:17;;;;;;;10.35;6.60;;;;;;;20.75;100.00;101058.59;6247894;28;20056;-81
2022/08/18 10:35:57;;;;;;;7.65;4.70;;;;;;;20.86;100.00;101056.81;6248770;28;20053;-78
2022/08/18 10:38:58;;;;;;;11.25;6.90;;;;;;;21.00;100.00;101059.88;6235024;28;20112;-80
2022/08/18 10:42:05;;;;;;;6.68;4.53;;;;;;;21.11;100.00;101053.53;6223093;28;20049;-79
2022/08/18 10:45:12;;;;;;;10.10;6.47;;;;;;;21.22;100.00;101056.06;6223631;28;20060;-79
2022/08/18 10:48:20;;;;;;;7.85;4.85;;;;;;;21.36;100.00;101052.13;6223545;28;20057;-80
2022/08/18 10:51:30;;;;;;;7.95;5.47;;;;;;;21.45;100.00;101053.94;6223170;28;20061;-80
2022/08/18 10:54:42;;;;;;;13.98;7.65;;;;;;;21.59;100.00;101054.47;6222876;28;20417;-78
2022/08/18 10:58:09;;;;;;;10.63;6.15;;;;;;;21.59;100.00;101054.47;6223564;28;20084;-81
2022/08/18 11:01:23;;;;;;;8.82;5.93;;;;;;;21.69;100.00;101055.25;6198343;28;20471;-77
2022/08/18 11:04:29;;;;;;;9.50;4.85;;;;;;;21.86;100.00;101067.03;6247558;28;20056;-79
2022/08/18 11:07:31;;;;;;;7.20;4.47;;;;;;;22.05;100.00;101061.59;6240537;28;20132;-78
2022/08/18 11:10:39;;;;;;;9.77;5.32;;;;;;;22.25;100.00;101047.13;6227964;28;20049;-80
2022/08/18 11:13:53;;;;;;;6.05;3.90;;;;;;;22.52;100.00;101056.97;6236328;28;20046;-81
2022/08/18 11:17:07;;;;;;;7.38;4.72;;;;;;;22.61;97.39;101055.19;6237583;28;20061;-77
2022/08/18 11:20:11;;;;;;;6.22;3.88;;;;;;;22.74;94.55;101055.66;6239829;28;20042;-78
2022/08/18 11:23:14;;;;;;;5.65;3.10;;;;;;;22.81;93.41;101050.56;6231182;28;20046;-77
2022/08/18 11:26:16;;;;;;;7.43;4.75;;;;;;;22.74;90.93;101042.28;6238924;28;20050;-76
2022/08/18 11:29:31;;;;;;;5.63;4.22;;;;;;;22.89;91.85;101039.94;6229360;28;20131;-77
2022/08/18 11:32:37;;;;;;;6.63;3.70;;;;;;;22.94;90.12;101044.84;6232474;28;20053;-79
2022/08/18 11:35:46;;;;;;;7.05;4.50;;;;;;;23.08;88.94;101027.34;6238763;28;20053;-76
2022/08/18 11:38:54;;;;;;;9.25;4.28;;;;;;;23.26;86.48;101031.66;6235011;28;20045;-74
2022/08/18 11:41:56;;;;;;;6.68;3.35;;;;;;;23.36;87.47;101026.19;6238709;28;20503;-75
2022/08/18 11:45:07;;;;;;;5.65;3.05;;;;;;;23.62;88.13;101020.81;6233493;28;20056;-74
2022/08/18 11:48:18;;;;;;;4.47;4.03;;;;;;;23.74;85.46;101032.13;6237236;28;20046;-75
2022/08/18 11:51:23;;;;;;;5.35;3.78;;;;;;;24.10;85.55;101038.16;6239952;28;20045;-77
2022/08/18 11:54:35;;;;;;;4.43;3.17;;;;;;;24.34;84.88;101040.06;6250746;28;20049;-76
2022/08/18 11:57:44;;;;;;;6.80;3.33;;;;;;;24.37;81.68;101041.63;6251457;28;20050;-78
2022/08/18 12:00:56;;;;;;;;;;;;;;;24.39;79.27;101031.53;6254562;28;20056;-78
2022/08/18 12:04:09;;;;;;;5.20;3.42;;;;;;;24.61;78.44;101028.22;6253076;28;20270;-78
2022/08/18 12:07:14;;;;;;;4.47;3.13;;;;;;;24.89;79.86;101026.06;6255477;28;20050;-77
2022/08/18 12:10:21;;;;;;;4.75;2.80;;;;;;;25.10;75.74;101012.13;6253785;28;20088;-77
2022/08/18 12:13:24;;;;;;;6.43;3.25;;;;;;;24.97;75.96;101001.84;6264985;28;20060;-80
2022/08/18 12:16:34;;;;;;;4.88;2.70;;;;;;;25.16;78.92;100989.06;6255531;28;20049;-79
2022/08/18 12:19:36;;;;;;;6.88;3.17;;;;;;;25.46;78.25;100982.94;6249757;28;20045;-80
2022/08/18 12:22:41;;;;;;;4.53;2.65;;;;;;;25.68;73.82;100981.34;6238868;28;20068;-79
2022/08/18 12:25:43;;;;;;;3.40;2.72;;;;;;;25.75;70.70;100986.88;6241430;28;20564;-80
2022/08/18 12:28:44;;;;;;;5.22;3.05;;;;;;;25.98;71.31;100976.19;6250513;28;20046;-82
2022/08/18 12:31:46;;;;;;;5.50;2.90;;;;;;;26.05;67.77;100983.38;6254578;28;20421;-80
2022/08/18 12:34:49;;;;;;;4.72;2.42;;;;;;;26.05;68.30;100979.84;6241694;28;20053;-80
2022/08/18 12:37:50;;;;;;;6.38;2.53;;;;;;;26.23;68.10;100971.50;6236778;28;20053;-81
2022/08/18 12:40:52;;;;;;;5.47;3.10;;;;;;;26.50;66.31;100965.59;6255678;28;20499;-79
2022/08/18 12:43:53;;;;;;;3.25;2.40;;;;;;;26.38;67.41;100968.88;6231174;28;20056;-79
2022/08/18 12:46:56;;;;;;;3.75;2.40;;;;;;;26.47;67.72;100970.50;6230013;28;20093;-79
2022/08/18 12:49:58;;;;;;;2.97;2.13;;;;;;;26.59;65.25;100966.38;6241799;28;20045;-79
2022/08/18 12:53:00;;;;;;;4.43;2.03;;;;;;;26.64;64.65;100965.84;6255650;28;20050;-79
2022/08/18 12:56:02;;;;;;;3.30;2.25;;;;;;;26.96;65.71;100959.31;6255551;28;20061;-79
2022/08/18 12:59:06;;;;;;;3.28;1.80;;;;;;;27.23;63.83;100957.88;6256940;28;20551;-80
2022/08/18 13:02:09;;;;;;;4.55;2.40;;;;;;;27.16;62.01;100947.00;6255550;28;20057;-79
2022/08/18 13:05:12;;;;;;;3.45;2.17;;;;;;;27.36;64.60;100946.44;6258882;28;20095;-79
2022/08/18 13:08:17;;;;;;;3.25;2.08;;;;;;;27.54;63.35;100936.09;6258533;28;20045;-80
2022/08/18 13:11:19;;;;;;;2.97;2.25;;;;;;;27.68;60.42;100937.09;6254812;28;20049;-76
2022/08/18 13:14:21;;;;;;;2.92;2.10;;;;;;;27.66;60.86;100926.47;6250624;28;20049;-79
2022/08/18 13:17:23;;;;;;;3.28;2.05;;;;;;;27.93;62.51;100927.63;6249496;28;20085;-79
2022/08/18 13:20:26;;;;;;;2.63;2.30;;;;;;;27.69;59.23;100906.34;6249379;28;20052;-79
2022/08/18 13:23:28;;;;;;;2.83;1.90;;;;;;;27.71;61.13;100909.72;6249316;28;20046;-79
2022/08/18 13:26:33;;;;;;;4.13;2.30;;;;;;;27.94;61.60;100920.38;6245148;28;20113;-79
2022/08/18 13:29:34;;;;;;;2.83;1.90;;;;;;;27.77;58.49;100941.38;6237605;28;20516;-79
2022/08/18 13:32:36;;;;;;;3.15;1.73;;;;;;;27.35;60.06;100939.38;6232553;28;20045;-80
2022/08/18 13:35:38;;;;;;;3.28;2.25;;;;;;;26.99;61.40;100945.47;6224565;28;20065;-79
2022/08/18 13:38:41;;;;;;;2.67;2.17;;;;;;;26.43;62.81;100943.06;6236610;28;20512;-79
2022/08/18 13:41:43;;;;;;;4.30;2.35;;;;;;;26.39;63.39;100930.09;6232975;28;20050;-80
2022/08/18 13:44:46;;;;;;;2.95;2.15;;;;;;;26.41;62.43;100920.84;6249050;28;20060;-79
2022/08/18 13:47:48;;;;;;;1.75;1.58;;;;;;;26.59;63.07;100911.63;6248963;28;20680;-79
2022/08/18 13:50:53;;;;;;;2.92;1.85;;;;;;;27.25;63.20;100921.59;6249110;28;20045;-79
2022/08/18 13:53:55;;;;;;;2.08;1.50;;;;;;;27.81;59.82;100931.88;6248084;28;20049;-78
2022/08/18 13:56:56;;;;;;;1.60;1.45;;;;;;;28.00;59.00;100935.81;6248441;28;20053;-79
2022/08/18 13:59:57;;;;;;;3.70;1.90;;;;;;;27.93;57.52;100943.00;6248270;28;20045;-77
2022/08/18 14:02:59;;;;;;;2.50;1.80;;;;;;;27.54;61.81;100946.88;6248387;28;20073;-79
2022/08/18 14:06:02;;;;;;;2.15;1.70;;;;;;;27.38;60.13;100939.81;6247899;28;20049;-79
2022/08/18 14:09:05;;;;;;;3.00;2.03;;;;;;;27.25;60.22;100935.09;6248651;28;20057;-78
2022/08/18 14:12:11;;;;;;;3.95;2.42;;;;;;;27.04;61.57;100929.56;6248453;28;20056;-79
2022/08/18 14:15:15;;;;;;;2.70;1.83;;;;;;;27.00;62.87;100931.78;6237488;28;20056;-79
2022/08/18 14:18:16;;;;;;;2.47;1.90;;;;;;;26.63;61.21;100927.25;6234974;28;20061;-79
2022/08/18 14:27:59;;;;;;;2.97;1.63;;;;;;;27.47;59.58;100910.84;6248303;28;20057;-79
2022/08/18 14:31:02;;;;;;;2.75;1.80;;;;;;;27.76;58.65;100918.09;6233843;28;20053;-79